EST,Max TemperatureF,Mean TemperatureF,Min TemperatureF,Max Dew PointF,MeanDew PointF,Min DewpointF,Max Humidity, Mean Humidity, Min Humidity, Max Sea Level PressureIn, Mean Sea Level PressureIn, Min Sea Level PressureIn, Max VisibilityMiles, Mean VisibilityMiles, Min VisibilityMiles, Max Wind SpeedMPH, Mean Wind SpeedMPH, Max Gust SpeedMPH,PrecipitationIn, CloudCover, Events, WindDirDegrees
2013-12-1,57,48,38,46,40,35,93,75,57,30.34,30.19,30.02,10,8,2,8,2,10,0.00,6,,4
2013-12-2,62,51,39,46,42,38,100,78,55,30.02,29.91,29.82,10,5,1,9,1,14,0.00,3,,338
2013-12-3,60,49,37,49,41,36,100,79,57,30.00,29.94,29.89,10,5,0,10,3,14,0.01,4,Fog-Rain,152
2013-12-4,63,58,52,60,56,50,100,95,90,30.10,30.04,30.00,8,3,0,9,3,11,0.62,7,Fog-Rain,157
2013-12-5,73,62,50,64,58,50,100,87,73,30.16,30.11,30.06,10,5,0,13,4,14,0.00,6,Fog,182
2013-12-6,79,71,63,65,63,62,93,76,58,30.14,30.07,30.03,10,10,10,20,9,25,0.00,3,,202
2013-12-7,68,57,45,65,52,38,93,85,76,30.41,30.23,30.05,10,7,1,23,11,30,0.31,7,Rain,33
2013-12-8,45,42,38,38,37,36,100,85,70,30.42,30.36,30.29,10,3,1,16,9,23,0.17,8,Rain,33
2013-12-9,54,46,38,53,44,37,100,96,92,30.29,30.17,30.06,5,1,0,8,3,10,T,8,Fog-Rain,245
2013-12-10,69,54,38,65,54,32,100,90,79,30.35,30.01,29.90,10,5,0,24,9,37,0.26,6,Fog-Rain,248
2013-12-11,51,40,29,34,27,19,92,62,32,30.48,30.37,30.31,10,10,10,13,2,15,0.00,0,,45
2013-12-12,49,39,28,32,25,18,100,65,29,30.42,30.35,30.28,10,9,6,17,4,23,0.00,0,,351
2013-12-13,54,40,25,34,26,21,92,61,29,30.43,30.35,30.29,10,9,5,8,2,14,0.00,0,,177
2013-12-14,63,52,40,62,53,30,100,81,62,30.29,29.93,29.77,10,5,1,21,7,32,1.34,7,Rain-Thunderstorm,187
2013-12-15,56,46,35,55,47,33,100,81,61,30.11,29.85,29.73,10,6,1,16,7,22,0.02,6,Rain,291
2013-12-16,57,44,30,39,34,29,96,70,43,30.21,30.16,30.12,10,9,4,12,4,14,0.00,0,,224
2013-12-17,64,50,35,38,35,32,85,61,37,30.17,30.08,29.98,10,10,10,20,8,27,0.00,0,,219
2013-12-18,53,42,31,34,28,21,92,60,28,30.32,30.23,30.04,10,10,10,13,3,16,0.00,0,,319
2013-12-19,61,45,29,38,30,24,92,59,26,30.37,30.31,30.26,10,10,10,14,3,18,0.00,0,,204
2013-12-20,70,55,39,56,47,37,100,78,55,30.27,30.21,30.16,10,10,6,16,3,21,0.00,2,,225
2013-12-21,76,62,48,65,56,48,100,84,68,30.17,30.14,30.07,10,6,0,15,5,22,0.00,2,Fog,168
2013-12-22,81,74,67,67,65,62,93,74,54,30.13,30.09,30.05,10,10,8,28,7,35,0.00,5,,194
2013-12-23,77,65,52,70,63,50,93,81,69,30.13,30.07,30.01,10,7,1,22,9,28,0.55,8,Rain,258
2013-12-24,52,44,35,49,36,20,96,71,46,30.43,30.23,30.10,10,10,6,17,10,23,0.03,5,Rain,346
2013-12-25,44,36,28,24,19,13,64,51,37,30.54,30.46,30.39,10,10,10,14,7,17,0.00,1,,37
2013-12-26,46,40,33,37,32,24,92,76,59,30.37,30.33,30.26,10,9,6,10,3,13,0.01,6,,352
2013-12-27,53,42,31,33,28,24,96,67,38,30.45,30.40,30.36,10,10,6,12,4,14,0.00,0,,21
2013-12-28,59,43,26,37,30,25,100,65,30,30.43,30.31,30.11,10,8,4,8,2,10,0.00,2,,53
2013-12-29,70,58,45,66,56,38,100,77,54,30.10,29.87,29.73,10,4,0,24,8,33,1.34,7,Fog-Rain,190
2013-12-30,57,49,40,47,42,39,100,78,55,30.14,30.02,29.95,10,5,0,10,1,13,0.00,2,Fog,6
2013-12-31,54,45,35,44,37,30,93,67,41,30.37,30.25,30.11,10,9,7,14,5,18,0.00,3,,318